sensor_id;sensor_type;location;lat;lon;timestamp;P1;durP1;ratioP1;P2;durP2;ratioP2
30020;SDS011;16861;52.294;7.760;2024-02-26T00:01:12;6.50;;;3.97;;
30020;SDS011;16861;52.294;7.760;2024-02-26T00:03:38;4.90;;;3.55;;
30020;SDS011;16861;52.294;7.760;2024-02-26T00:06:08;4.70;;;3.80;;
30020;SDS011;16861;52.294;7.760;2024-02-26T00:08:34;4.53;;;4.00;;
30020;SDS011;16861;52.294;7.760;2024-02-26T00:11:01;6.55;;;4.20;;
30020;SDS011;16861;52.294;7.760;2024-02-26T00:13:27;5.40;;;4.10;;
30020;SDS011;16861;52.294;7.760;2024-02-26T00:15:54;5.38;;;4.00;;
30020;SDS011;16861;52.294;7.760;2024-02-26T00:18:20;5.40;;;4.13;;
30020;SDS011;16861;52.294;7.760;2024-02-26T00:20:47;6.18;;;4.15;;
30020;SDS011;16861;52.294;7.760;2024-02-26T00:23:17;6.10;;;4.63;;
30020;SDS011;16861;52.294;7.760;2024-02-26T00:25:43;6.18;;;4.20;;
30020;SDS011;16861;52.294;7.760;2024-02-26T00:28:10;6.72;;;4.90;;
30020;SDS011;16861;52.294;7.760;2024-02-26T00:30:36;6.55;;;4.70;;
30020;SDS011;16861;52.294;7.760;2024-02-26T00:33:03;7.18;;;5.00;;
30020;SDS011;16861;52.294;7.760;2024-02-26T00:35:30;6.30;;;4.75;;
30020;SDS011;16861;52.294;7.760;2024-02-26T00:37:56;7.65;;;5.57;;
30020;SDS011;16861;52.294;7.760;2024-02-26T00:40:24;7.22;;;4.70;;
30020;SDS011;16861;52.294;7.760;2024-02-26T00:42:51;7.00;;;4.40;;
30020;SDS011;16861;52.294;7.760;2024-02-26T00:45:23;7.47;;;4.63;;
30020;SDS011;16861;52.294;7.760;2024-02-26T00:47:50;6.15;;;4.20;;
30020;SDS011;16861;52.294;7.760;2024-02-26T00:50:18;6.45;;;4.45;;
30020;SDS011;16861;52.294;7.760;2024-02-26T00:52:44;5.53;;;4.53;;
30020;SDS011;16861;52.294;7.760;2024-02-26T00:55:12;5.97;;;4.57;;
30020;SDS011;16861;52.294;7.760;2024-02-26T00:57:39;6.70;;;4.43;;
30020;SDS011;16861;52.294;7.760;2024-02-26T01:00:13;4.85;;;4.05;;
30020;SDS011;16861;52.294;7.760;2024-02-26T01:02:40;5.35;;;4.18;;
30020;SDS011;16861;52.294;7.760;2024-02-26T01:05:09;5.28;;;4.05;;
30020;SDS011;16861;52.294;7.760;2024-02-26T01:07:35;5.82;;;3.97;;
30020;SDS011;16861;52.294;7.760;2024-02-26T01:10:03;6.10;;;3.90;;
30020;SDS011;16861;52.294;7.760;2024-02-26T01:12:30;5.53;;;4.07;;
30020;SDS011;16861;52.294;7.760;2024-02-26T01:14:56;3.75;;;3.35;;
30020;SDS011;16861;52.294;7.760;2024-02-26T01:17:23;5.55;;;4.03;;
30020;SDS011;16861;52.294;7.760;2024-02-26T01:19:50;5.45;;;4.20;;
30020;SDS011;16861;52.294;7.760;2024-02-26T01:22:16;5.18;;;3.95;;
30020;SDS011;16861;52.294;7.760;2024-02-26T01:24:44;5.68;;;4.28;;
30020;SDS011;16861;52.294;7.760;2024-02-26T01:27:10;9.07;;;4.95;;
30020;SDS011;16861;52.294;7.760;2024-02-26T01:29:37;5.63;;;4.40;;
30020;SDS011;16861;52.294;7.760;2024-02-26T01:32:05;7.15;;;4.57;;
30020;SDS011;16861;52.294;7.760;2024-02-26T01:34:32;5.93;;;4.55;;
30020;SDS011;16861;52.294;7.760;2024-02-26T01:36:58;5.85;;;4.57;;
30020;SDS011;16861;52.294;7.760;2024-02-26T01:39:25;6.28;;;4.72;;
30020;SDS011;16861;52.294;7.760;2024-02-26T01:41:55;5.85;;;4.68;;
30020;SDS011;16861;52.294;7.760;2024-02-26T01:44:22;6.13;;;4.60;;
30020;SDS011;16861;52.294;7.760;2024-02-26T01:46:49;6.40;;;4.13;;
30020;SDS011;16861;52.294;7.760;2024-02-26T01:49:15;6.45;;;4.05;;
30020;SDS011;16861;52.294;7.760;2024-02-26T01:51:45;6.40;;;3.63;;
30020;SDS011;16861;52.294;7.760;2024-02-26T01:54:12;4.15;;;3.50;;
30020;SDS011;16861;52.294;7.760;2024-02-26T01:56:40;4.72;;;3.30;;
30020;SDS011;16861;52.294;7.760;2024-02-26T01:59:07;4.13;;;3.47;;
30020;SDS011;16861;52.294;7.760;2024-02-26T02:01:36;5.55;;;3.47;;
30020;SDS011;16861;52.294;7.760;2024-02-26T02:04:04;3.85;;;3.35;;
30020;SDS011;16861;52.294;7.760;2024-02-26T02:06:39;5.07;;;3.60;;
30020;SDS011;16861;52.294;7.760;2024-02-26T02:09:08;4.20;;;3.45;;
30020;SDS011;16861;52.294;7.760;2024-02-26T02:11:34;5.10;;;3.45;;
30020;SDS011;16861;52.294;7.760;2024-02-26T02:14:01;6.53;;;3.47;;
30020;SDS011;16861;52.294;7.760;2024-02-26T02:16:28;5.93;;;3.45;;
30020;SDS011;16861;52.294;7.760;2024-02-26T02:18:54;6.38;;;3.78;;
30020;SDS011;16861;52.294;7.760;2024-02-26T02:21:21;4.82;;;3.40;;
30020;SDS011;16861;52.294;7.760;2024-02-26T02:23:47;5.25;;;3.53;;
30020;SDS011;16861;52.294;7.760;2024-02-26T02:26:16;5.57;;;3.50;;
30020;SDS011;16861;52.294;7.760;2024-02-26T02:28:45;4.70;;;3.75;;
30020;SDS011;16861;52.294;7.760;2024-02-26T02:31:22;4.60;;;3.78;;
30020;SDS011;16861;52.294;7.760;2024-02-26T02:33:49;4.28;;;3.53;;
30020;SDS011;16861;52.294;7.760;2024-02-26T02:36:16;5.95;;;3.90;;
30020;SDS011;16861;52.294;7.760;2024-02-26T02:38:49;4.45;;;3.53;;
30020;SDS011;16861;52.294;7.760;2024-02-26T02:41:17;6.50;;;3.65;;
30020;SDS011;16861;52.294;7.760;2024-02-26T02:43:44;6.95;;;4.35;;
30020;SDS011;16861;52.294;7.760;2024-02-26T02:46:13;5.22;;;3.60;;
30020;SDS011;16861;52.294;7.760;2024-02-26T02:48:41;4.60;;;3.97;;
30020;SDS011;16861;52.294;7.760;2024-02-26T02:53:38;5.03;;;4.22;;
30020;SDS011;16861;52.294;7.760;2024-02-26T02:56:04;4.55;;;3.65;;
30020;SDS011;16861;52.294;7.760;2024-02-26T02:58:31;5.20;;;3.83;;
30020;SDS011;16861;52.294;7.760;2024-02-26T03:01:04;5.18;;;3.95;;
30020;SDS011;16861;52.294;7.760;2024-02-26T03:05:58;4.45;;;3.17;;
30020;SDS011;16861;52.294;7.760;2024-02-26T03:08:25;4.13;;;3.70;;
30020;SDS011;16861;52.294;7.760;2024-02-26T03:10:52;4.80;;;3.83;;
30020;SDS011;16861;52.294;7.760;2024-02-26T03:13:19;5.20;;;4.20;;
30020;SDS011;16861;52.294;7.760;2024-02-26T03:15:46;5.22;;;3.72;;
30020;SDS011;16861;52.294;7.760;2024-02-26T03:18:13;6.18;;;4.18;;
30020;SDS011;16861;52.294;7.760;2024-02-26T03:20:40;5.50;;;3.90;;
30020;SDS011;16861;52.294;7.760;2024-02-26T03:23:07;4.00;;;3.53;;
30020;SDS011;16861;52.294;7.760;2024-02-26T03:25:37;4.78;;;3.72;;
30020;SDS011;16861;52.294;7.760;2024-02-26T03:28:03;5.05;;;3.97;;
30020;SDS011;16861;52.294;7.760;2024-02-26T03:30:31;5.28;;;4.25;;
30020;SDS011;16861;52.294;7.760;2024-02-26T03:32:58;5.55;;;4.05;;
30020;SDS011;16861;52.294;7.760;2024-02-26T03:35:25;4.97;;;4.03;;
30020;SDS011;16861;52.294;7.760;2024-02-26T03:37:51;3.90;;;3.50;;
30020;SDS011;16861;52.294;7.760;2024-02-26T03:40:18;4.63;;;3.60;;
30020;SDS011;16861;52.294;7.760;2024-02-26T03:42:45;4.70;;;3.83;;
30020;SDS011;16861;52.294;7.760;2024-02-26T03:45:12;4.25;;;3.83;;
30020;SDS011;16861;52.294;7.760;2024-02-26T03:47:45;6.20;;;3.88;;
30020;SDS011;16861;52.294;7.760;2024-02-26T03:52:38;3.90;;;3.42;;
30020;SDS011;16861;52.294;7.760;2024-02-26T03:55:05;3.97;;;3.58;;
30020;SDS011;16861;52.294;7.760;2024-02-26T03:57:33;5.95;;;4.18;;
30020;SDS011;16861;52.294;7.760;2024-02-26T04:00:00;4.25;;;3.50;;
30020;SDS011;16861;52.294;7.760;2024-02-26T04:02:27;4.57;;;3.85;;
30020;SDS011;16861;52.294;7.760;2024-02-26T04:04:53;4.10;;;3.70;;
30020;SDS011;16861;52.294;7.760;2024-02-26T04:07:20;5.07;;;3.63;;
30020;SDS011;16861;52.294;7.760;2024-02-26T04:09:47;4.18;;;3.60;;
30020;SDS011;16861;52.294;7.760;2024-02-26T04:12:13;4.28;;;3.58;;
30020;SDS011;16861;52.294;7.760;2024-02-26T04:14:40;5.35;;;3.60;;
30020;SDS011;16861;52.294;7.760;2024-02-26T04:17:13;7.03;;;4.10;;
30020;SDS011;16861;52.294;7.760;2024-02-26T04:19:40;5.15;;;3.40;;
30020;SDS011;16861;52.294;7.760;2024-02-26T04:22:06;4.07;;;3.67;;
30020;SDS011;16861;52.294;7.760;2024-02-26T04:24:33;4.95;;;4.03;;
30020;SDS011;16861;52.294;7.760;2024-02-26T04:26:59;5.57;;;3.88;;
30020;SDS011;16861;52.294;7.760;2024-02-26T04:29:26;3.92;;;3.55;;
30020;SDS011;16861;52.294;7.760;2024-02-26T04:31:52;4.18;;;3.28;;
30020;SDS011;16861;52.294;7.760;2024-02-26T04:34:19;4.00;;;3.47;;
30020;SDS011;16861;52.294;7.760;2024-02-26T04:36:46;4.68;;;3.55;;
30020;SDS011;16861;52.294;7.760;2024-02-26T04:39:14;5.03;;;3.55;;
30020;SDS011;16861;52.294;7.760;2024-02-26T04:41:40;4.07;;;3.13;;
30020;SDS011;16861;52.294;7.760;2024-02-26T04:44:07;4.53;;;3.90;;
30020;SDS011;16861;52.294;7.760;2024-02-26T04:46:35;4.10;;;3.40;;
30020;SDS011;16861;52.294;7.760;2024-02-26T04:49:01;4.18;;;3.78;;
30020;SDS011;16861;52.294;7.760;2024-02-26T04:51:28;4.15;;;3.75;;
30020;SDS011;16861;52.294;7.760;2024-02-26T04:53:54;5.20;;;3.92;;
30020;SDS011;16861;52.294;7.760;2024-02-26T04:56:21;4.85;;;4.18;;
30020;SDS011;16861;52.294;7.760;2024-02-26T04:58:48;4.22;;;3.80;;
30020;SDS011;16861;52.294;7.760;2024-02-26T05:01:15;4.88;;;3.88;;
30020;SDS011;16861;52.294;7.760;2024-02-26T05:03:43;4.00;;;3.45;;
30020;SDS011;16861;52.294;7.760;2024-02-26T05:06:10;4.53;;;3.95;;
30020;SDS011;16861;52.294;7.760;2024-02-26T05:08:37;4.30;;;3.70;;
30020;SDS011;16861;52.294;7.760;2024-02-26T05:11:05;3.70;;;2.95;;
30020;SDS011;16861;52.294;7.760;2024-02-26T05:13:32;4.82;;;4.10;;
30020;SDS011;16861;52.294;7.760;2024-02-26T05:15:59;4.40;;;3.95;;
30020;SDS011;16861;52.294;7.760;2024-02-26T05:18:26;5.03;;;3.78;;
30020;SDS011;16861;52.294;7.760;2024-02-26T05:20:54;5.68;;;3.72;;
30020;SDS011;16861;52.294;7.760;2024-02-26T05:23:20;4.70;;;3.58;;
30020;SDS011;16861;52.294;7.760;2024-02-26T05:25:49;4.18;;;3.78;;
30020;SDS011;16861;52.294;7.760;2024-02-26T05:30:50;5.72;;;3.88;;
30020;SDS011;16861;52.294;7.760;2024-02-26T05:33:16;5.18;;;3.40;;
30020;SDS011;16861;52.294;7.760;2024-02-26T05:35:44;5.38;;;3.92;;
30020;SDS011;16861;52.294;7.760;2024-02-26T05:38:11;4.68;;;3.78;;
30020;SDS011;16861;52.294;7.760;2024-02-26T05:40:38;4.22;;;3.67;;
30020;SDS011;16861;52.294;7.760;2024-02-26T05:43:04;5.10;;;4.50;;
30020;SDS011;16861;52.294;7.760;2024-02-26T05:45:31;5.38;;;3.78;;
30020;SDS011;16861;52.294;7.760;2024-02-26T05:47:59;5.18;;;3.85;;
30020;SDS011;16861;52.294;7.760;2024-02-26T05:50:26;4.38;;;3.97;;
30020;SDS011;16861;52.294;7.760;2024-02-26T05:52:52;5.68;;;4.30;;
30020;SDS011;16861;52.294;7.760;2024-02-26T05:55:19;4.63;;;4.10;;
30020;SDS011;16861;52.294;7.760;2024-02-26T05:57:45;5.00;;;4.30;;
30020;SDS011;16861;52.294;7.760;2024-02-26T06:00:12;6.97;;;4.32;;
30020;SDS011;16861;52.294;7.760;2024-02-26T06:02:41;4.40;;;4.00;;
30020;SDS011;16861;52.294;7.760;2024-02-26T06:05:08;5.90;;;4.70;;
30020;SDS011;16861;52.294;7.760;2024-02-26T06:07:35;6.07;;;4.35;;
30020;SDS011;16861;52.294;7.760;2024-02-26T06:10:02;5.25;;;3.90;;
30020;SDS011;16861;52.294;7.760;2024-02-26T06:12:30;6.10;;;4.05;;
30020;SDS011;16861;52.294;7.760;2024-02-26T06:14:57;5.22;;;4.30;;
30020;SDS011;16861;52.294;7.760;2024-02-26T06:17:27;6.03;;;4.30;;
30020;SDS011;16861;52.294;7.760;2024-02-26T06:19:54;4.90;;;3.78;;
30020;SDS011;16861;52.294;7.760;2024-02-26T06:22:21;7.32;;;4.30;;
30020;SDS011;16861;52.294;7.760;2024-02-26T06:24:48;5.50;;;4.43;;
30020;SDS011;16861;52.294;7.760;2024-02-26T06:27:14;5.93;;;4.40;;
30020;SDS011;16861;52.294;7.760;2024-02-26T06:29:41;4.82;;;4.32;;
30020;SDS011;16861;52.294;7.760;2024-02-26T06:32:08;5.65;;;4.82;;
30020;SDS011;16861;52.294;7.760;2024-02-26T06:34:34;5.85;;;4.20;;
30020;SDS011;16861;52.294;7.760;2024-02-26T06:37:01;7.03;;;4.15;;
30020;SDS011;16861;52.294;7.760;2024-02-26T06:39:30;5.40;;;4.40;;
30020;SDS011;16861;52.294;7.760;2024-02-26T06:41:56;5.22;;;4.65;;
30020;SDS011;16861;52.294;7.760;2024-02-26T06:44:27;5.50;;;4.25;;
30020;SDS011;16861;52.294;7.760;2024-02-26T06:46:58;6.70;;;4.82;;
30020;SDS011;16861;52.294;7.760;2024-02-26T06:49:28;6.65;;;4.45;;
30020;SDS011;16861;52.294;7.760;2024-02-26T06:51:55;6.88;;;4.20;;
30020;SDS011;16861;52.294;7.760;2024-02-26T06:54:22;6.40;;;4.05;;
30020;SDS011;16861;52.294;7.760;2024-02-26T06:56:48;6.03;;;4.35;;
30020;SDS011;16861;52.294;7.760;2024-02-26T06:59:15;6.95;;;4.57;;
30020;SDS011;16861;52.294;7.760;2024-02-26T07:01:41;8.13;;;4.35;;
30020;SDS011;16861;52.294;7.760;2024-02-26T07:04:08;5.38;;;4.20;;
30020;SDS011;16861;52.294;7.760;2024-02-26T07:06:37;5.15;;;4.20;;
30020;SDS011;16861;52.294;7.760;2024-02-26T07:09:04;6.63;;;4.22;;
30020;SDS011;16861;52.294;7.760;2024-02-26T07:11:31;5.38;;;4.13;;
30020;SDS011;16861;52.294;7.760;2024-02-26T07:13:57;7.10;;;4.35;;
30020;SDS011;16861;52.294;7.760;2024-02-26T07:16:24;5.75;;;4.05;;
30020;SDS011;16861;52.294;7.760;2024-02-26T07:18:50;5.68;;;3.80;;
30020;SDS011;16861;52.294;7.760;2024-02-26T07:21:17;4.40;;;3.92;;
30020;SDS011;16861;52.294;7.760;2024-02-26T07:23:44;5.03;;;3.92;;
30020;SDS011;16861;52.294;7.760;2024-02-26T07:26:10;5.18;;;3.80;;
30020;SDS011;16861;52.294;7.760;2024-02-26T07:28:38;5.80;;;4.28;;
30020;SDS011;16861;52.294;7.760;2024-02-26T07:31:04;4.70;;;3.72;;
30020;SDS011;16861;52.294;7.760;2024-02-26T07:33:31;4.72;;;3.67;;
30020;SDS011;16861;52.294;7.760;2024-02-26T07:35:58;6.38;;;3.88;;
30020;SDS011;16861;52.294;7.760;2024-02-26T07:38:24;6.55;;;3.80;;
30020;SDS011;16861;52.294;7.760;2024-02-26T07:41:07;2.95;;;2.45;;
30020;SDS011;16861;52.294;7.760;2024-02-26T07:43:34;5.00;;;3.83;;
30020;SDS011;16861;52.294;7.760;2024-02-26T07:46:01;5.07;;;3.67;;
30020;SDS011;16861;52.294;7.760;2024-02-26T07:48:28;4.00;;;3.55;;
30020;SDS011;16861;52.294;7.760;2024-02-26T07:50:54;5.25;;;3.90;;
30020;SDS011;16861;52.294;7.760;2024-02-26T07:53:21;6.40;;;4.03;;
30020;SDS011;16861;52.294;7.760;2024-02-26T07:55:48;6.07;;;4.03;;
30020;SDS011;16861;52.294;7.760;2024-02-26T07:58:14;7.72;;;4.05;;
30020;SDS011;16861;52.294;7.760;2024-02-26T08:00:41;6.75;;;3.80;;
30020;SDS011;16861;52.294;7.760;2024-02-26T08:03:08;4.45;;;3.38;;
30020;SDS011;16861;52.294;7.760;2024-02-26T08:05:34;6.25;;;3.88;;
30020;SDS011;16861;52.294;7.760;2024-02-26T08:08:01;5.43;;;3.90;;
30020;SDS011;16861;52.294;7.760;2024-02-26T08:10:28;5.40;;;3.88;;
30020;SDS011;16861;52.294;7.760;2024-02-26T08:12:58;7.68;;;4.50;;
30020;SDS011;16861;52.294;7.760;2024-02-26T08:15:31;4.78;;;3.53;;
30020;SDS011;16861;52.294;7.760;2024-02-26T08:18:00;5.57;;;3.90;;
30020;SDS011;16861;52.294;7.760;2024-02-26T08:20:31;8.35;;;4.75;;
30020;SDS011;16861;52.294;7.760;2024-02-26T08:22:58;5.47;;;3.97;;
30020;SDS011;16861;52.294;7.760;2024-02-26T08:25:24;8.20;;;4.35;;
30020;SDS011;16861;52.294;7.760;2024-02-26T08:27:51;6.50;;;4.65;;
30020;SDS011;16861;52.294;7.760;2024-02-26T08:30:18;5.63;;;4.07;;
30020;SDS011;16861;52.294;7.760;2024-02-26T08:32:45;5.50;;;4.30;;
30020;SDS011;16861;52.294;7.760;2024-02-26T08:35:17;5.28;;;4.20;;
30020;SDS011;16861;52.294;7.760;2024-02-26T08:37:44;4.45;;;3.63;;
30020;SDS011;16861;52.294;7.760;2024-02-26T08:40:12;5.72;;;4.07;;
30020;SDS011;16861;52.294;7.760;2024-02-26T08:42:39;5.35;;;4.03;;
30020;SDS011;16861;52.294;7.760;2024-02-26T08:45:07;4.78;;;4.20;;
30020;SDS011;16861;52.294;7.760;2024-02-26T08:47:34;4.70;;;3.95;;
30020;SDS011;16861;52.294;7.760;2024-02-26T08:50:02;5.95;;;4.05;;
30020;SDS011;16861;52.294;7.760;2024-02-26T08:52:29;5.20;;;4.25;;
30020;SDS011;16861;52.294;7.760;2024-02-26T08:54:56;5.95;;;4.20;;
30020;SDS011;16861;52.294;7.760;2024-02-26T08:57:23;6.18;;;4.60;;
30020;SDS011;16861;52.294;7.760;2024-02-26T08:59:50;6.20;;;4.80;;
30020;SDS011;16861;52.294;7.760;2024-02-26T09:02:17;6.43;;;4.38;;
30020;SDS011;16861;52.294;7.760;2024-02-26T09:04:44;6.40;;;4.53;;
30020;SDS011;16861;52.294;7.760;2024-02-26T09:07:10;7.03;;;4.72;;
30020;SDS011;16861;52.294;7.760;2024-02-26T09:09:37;5.88;;;4.43;;
30020;SDS011;16861;52.294;7.760;2024-02-26T09:12:04;6.25;;;5.03;;
30020;SDS011;16861;52.294;7.760;2024-02-26T09:14:31;7.43;;;4.65;;
30020;SDS011;16861;52.294;7.760;2024-02-26T09:16:57;6.40;;;4.97;;
30020;SDS011;16861;52.294;7.760;2024-02-26T09:19:25;6.50;;;4.80;;
30020;SDS011;16861;52.294;7.760;2024-02-26T09:21:54;6.65;;;4.75;;
30020;SDS011;16861;52.294;7.760;2024-02-26T09:24:24;7.70;;;4.90;;
30020;SDS011;16861;52.294;7.760;2024-02-26T09:26:51;7.07;;;4.70;;
30020;SDS011;16861;52.294;7.760;2024-02-26T09:29:18;8.65;;;4.50;;
30020;SDS011;16861;52.294;7.760;2024-02-26T09:31:45;7.30;;;4.80;;
30020;SDS011;16861;52.294;7.760;2024-02-26T09:34:13;8.82;;;4.80;;
30020;SDS011;16861;52.294;7.760;2024-02-26T09:36:41;6.80;;;4.60;;
30020;SDS011;16861;52.294;7.760;2024-02-26T09:39:08;6.43;;;5.05;;
30020;SDS011;16861;52.294;7.760;2024-02-26T09:41:38;4.82;;;4.32;;
30020;SDS011;16861;52.294;7.760;2024-02-26T09:44:05;7.35;;;4.72;;
30020;SDS011;16861;52.294;7.760;2024-02-26T09:46:32;8.30;;;4.35;;
30020;SDS011;16861;52.294;7.760;2024-02-26T09:48:59;6.65;;;4.63;;
30020;SDS011;16861;52.294;7.760;2024-02-26T09:51:27;5.88;;;4.80;;
30020;SDS011;16861;52.294;7.760;2024-02-26T09:53:53;6.38;;;4.32;;
30020;SDS011;16861;52.294;7.760;2024-02-26T09:56:21;6.40;;;4.60;;
30020;SDS011;16861;52.294;7.760;2024-02-26T09:58:48;4.90;;;4.35;;
30020;SDS011;16861;52.294;7.760;2024-02-26T10:01:20;5.87;;;4.97;;
30020;SDS011;16861;52.294;7.760;2024-02-26T10:03:52;6.07;;;4.68;;
30020;SDS011;16861;52.294;7.760;2024-02-26T10:06:23;5.50;;;4.15;;
30020;SDS011;16861;52.294;7.760;2024-02-26T10:08:52;8.70;;;4.35;;
30020;SDS011;16861;52.294;7.760;2024-02-26T10:11:20;5.88;;;4.68;;
30020;SDS011;16861;52.294;7.760;2024-02-26T10:13:48;5.70;;;4.30;;
30020;SDS011;16861;52.294;7.760;2024-02-26T10:16:15;7.40;;;5.15;;
30020;SDS011;16861;52.294;7.760;2024-02-26T10:18:52;10.00;;;5.72;;
30020;SDS011;16861;52.294;7.760;2024-02-26T10:21:25;7.25;;;4.25;;
30020;SDS011;16861;52.294;7.760;2024-02-26T10:23:52;5.70;;;4.07;;
30020;SDS011;16861;52.294;7.760;2024-02-26T10:26:19;5.38;;;4.30;;
30020;SDS011;16861;52.294;7.760;2024-02-26T10:28:46;7.68;;;4.03;;
30020;SDS011;16861;52.294;7.760;2024-02-26T10:31:18;4.95;;;3.92;;
30020;SDS011;16861;52.294;7.760;2024-02-26T10:33:45;4.40;;;3.58;;
30020;SDS011;16861;52.294;7.760;2024-02-26T10:36:12;4.13;;;3.17;;
30020;SDS011;16861;52.294;7.760;2024-02-26T10:38:39;4.53;;;3.88;;
30020;SDS011;16861;52.294;7.760;2024-02-26T10:41:06;5.57;;;3.60;;
30020;SDS011;16861;52.294;7.760;2024-02-26T10:43:33;4.88;;;3.88;;
30020;SDS011;16861;52.294;7.760;2024-02-26T10:45:59;4.43;;;3.53;;
30020;SDS011;16861;52.294;7.760;2024-02-26T10:48:26;6.93;;;3.67;;
30020;SDS011;16861;52.294;7.760;2024-02-26T10:50:53;5.00;;;3.63;;
30020;SDS011;16861;52.294;7.760;2024-02-26T10:53:20;4.63;;;3.60;;
30020;SDS011;16861;52.294;7.760;2024-02-26T10:55:57;4.95;;;3.63;;
30020;SDS011;16861;52.294;7.760;2024-02-26T10:58:29;4.65;;;3.60;;
30020;SDS011;16861;52.294;7.760;2024-02-26T11:00:58;4.95;;;4.10;;
30020;SDS011;16861;52.294;7.760;2024-02-26T11:03:25;4.68;;;3.83;;
30020;SDS011;16861;52.294;7.760;2024-02-26T11:05:53;4.50;;;3.40;;
30020;SDS011;16861;52.294;7.760;2024-02-26T11:08:21;4.07;;;3.15;;
30020;SDS011;16861;52.294;7.760;2024-02-26T11:10:48;4.15;;;3.50;;
30020;SDS011;16861;52.294;7.760;2024-02-26T11:13:19;5.82;;;3.70;;
30020;SDS011;16861;52.294;7.760;2024-02-26T11:15:47;4.82;;;3.60;;
30020;SDS011;16861;52.294;7.760;2024-02-26T11:18:15;4.50;;;3.35;;
30020;SDS011;16861;52.294;7.760;2024-02-26T11:20:45;4.78;;;3.67;;
30020;SDS011;16861;52.294;7.760;2024-02-26T11:23:14;5.00;;;3.65;;
30020;SDS011;16861;52.294;7.760;2024-02-26T11:25:41;5.40;;;3.40;;
30020;SDS011;16861;52.294;7.760;2024-02-26T11:28:10;4.72;;;3.50;;
30020;SDS011;16861;52.294;7.760;2024-02-26T11:30:41;5.25;;;3.40;;
30020;SDS011;16861;52.294;7.760;2024-02-26T11:33:12;4.77;;;3.90;;
30020;SDS011;16861;52.294;7.760;2024-02-26T11:35:40;3.83;;;3.25;;
30020;SDS011;16861;52.294;7.760;2024-02-26T11:38:07;5.32;;;3.47;;
30020;SDS011;16861;52.294;7.760;2024-02-26T11:40:38;5.07;;;3.50;;
30020;SDS011;16861;52.294;7.760;2024-02-26T11:43:07;5.10;;;3.65;;
30020;SDS011;16861;52.294;7.760;2024-02-26T11:48:13;5.18;;;4.22;;
30020;SDS011;16861;52.294;7.760;2024-02-26T11:50:53;4.75;;;3.85;;
30020;SDS011;16861;52.294;7.760;2024-02-26T11:53:22;5.53;;;4.00;;
30020;SDS011;16861;52.294;7.760;2024-02-26T11:56:35;4.82;;;3.95;;
30020;SDS011;16861;52.294;7.760;2024-02-26T11:58:56;6.07;;;4.18;;
30020;SDS011;16861;52.294;7.760;2024-02-26T12:01:40;4.90;;;3.92;;
30020;SDS011;16861;52.294;7.760;2024-02-26T12:04:07;8.23;;;5.03;;
30020;SDS011;16861;52.294;7.760;2024-02-26T12:06:44;6.65;;;5.38;;
30020;SDS011;16861;52.294;7.760;2024-02-26T12:09:59;9.45;;;5.10;;
30020;SDS011;16861;52.294;7.760;2024-02-26T12:12:18;6.90;;;5.22;;
30020;SDS011;16861;52.294;7.760;2024-02-26T12:14:53;7.55;;;6.30;;
30020;SDS011;16861;52.294;7.760;2024-02-26T12:17:23;8.70;;;5.95;;
30020;SDS011;16861;52.294;7.760;2024-02-26T12:19:51;7.10;;;5.70;;
30020;SDS011;16861;52.294;7.760;2024-02-26T12:22:19;8.73;;;6.22;;
30020;SDS011;16861;52.294;7.760;2024-02-26T12:24:46;7.45;;;6.25;;
30020;SDS011;16861;52.294;7.760;2024-02-26T12:27:13;8.60;;;6.50;;
30020;SDS011;16861;52.294;7.760;2024-02-26T12:29:41;9.38;;;6.63;;
30020;SDS011;16861;52.294;7.760;2024-02-26T12:32:08;9.25;;;6.60;;
30020;SDS011;16861;52.294;7.760;2024-02-26T12:34:34;8.50;;;6.72;;
30020;SDS011;16861;52.294;7.760;2024-02-26T12:37:01;11.70;;;7.22;;
30020;SDS011;16861;52.294;7.760;2024-02-26T12:39:28;9.70;;;6.50;;
30020;SDS011;16861;52.294;7.760;2024-02-26T12:41:57;10.10;;;6.97;;
30020;SDS011;16861;52.294;7.760;2024-02-26T12:44:26;9.43;;;6.72;;
30020;SDS011;16861;52.294;7.760;2024-02-26T12:47:02;9.10;;;6.53;;
30020;SDS011;16861;52.294;7.760;2024-02-26T12:49:30;10.15;;;6.85;;
30020;SDS011;16861;52.294;7.760;2024-02-26T12:51:58;11.35;;;7.20;;
30020;SDS011;16861;52.294;7.760;2024-02-26T12:54:28;10.05;;;7.30;;
30020;SDS011;16861;52.294;7.760;2024-02-26T12:56:58;10.13;;;6.60;;
30020;SDS011;16861;52.294;7.760;2024-02-26T12:59:27;10.88;;;7.32;;
30020;SDS011;16861;52.294;7.760;2024-02-26T13:01:54;13.55;;;7.45;;
30020;SDS011;16861;52.294;7.760;2024-02-26T13:04:21;12.45;;;7.65;;
30020;SDS011;16861;52.294;7.760;2024-02-26T13:06:48;12.02;;;7.47;;
30020;SDS011;16861;52.294;7.760;2024-02-26T13:09:14;10.52;;;7.10;;
30020;SDS011;16861;52.294;7.760;2024-02-26T13:11:41;11.23;;;7.03;;
30020;SDS011;16861;52.294;7.760;2024-02-26T13:14:08;8.75;;;6.78;;
30020;SDS011;16861;52.294;7.760;2024-02-26T13:16:55;8.43;;;6.43;;
30020;SDS011;16861;52.294;7.760;2024-02-26T13:19:23;10.13;;;7.00;;
30020;SDS011;16861;52.294;7.760;2024-02-26T13:21:50;8.93;;;7.10;;
30020;SDS011;16861;52.294;7.760;2024-02-26T13:24:17;9.85;;;7.38;;
30020;SDS011;16861;52.294;7.760;2024-02-26T13:26:46;10.52;;;7.50;;
30020;SDS011;16861;52.294;7.760;2024-02-26T13:29:17;10.02;;;7.35;;
30020;SDS011;16861;52.294;7.760;2024-02-26T13:31:44;9.95;;;6.97;;
30020;SDS011;16861;52.294;7.760;2024-02-26T13:34:11;10.55;;;7.30;;
30020;SDS011;16861;52.294;7.760;2024-02-26T13:36:50;9.27;;;6.38;;
30020;SDS011;16861;52.294;7.760;2024-02-26T13:39:24;9.63;;;6.95;;
30020;SDS011;16861;52.294;7.760;2024-02-26T13:41:51;9.52;;;6.60;;
30020;SDS011;16861;52.294;7.760;2024-02-26T13:44:21;10.75;;;7.75;;
30020;SDS011;16861;52.294;7.760;2024-02-26T13:46:48;13.02;;;8.20;;
30020;SDS011;16861;52.294;7.760;2024-02-26T13:49:18;11.23;;;7.30;;
30020;SDS011;16861;52.294;7.760;2024-02-26T13:51:45;12.53;;;8.47;;
30020;SDS011;16861;52.294;7.760;2024-02-26T13:54:12;25.08;;;11.95;;
30020;SDS011;16861;52.294;7.760;2024-02-26T13:56:40;23.23;;;11.93;;
30020;SDS011;16861;52.294;7.760;2024-02-26T13:59:08;19.02;;;10.85;;
30020;SDS011;16861;52.294;7.760;2024-02-26T14:01:34;18.02;;;10.13;;
30020;SDS011;16861;52.294;7.760;2024-02-26T14:04:01;13.07;;;8.65;;
30020;SDS011;16861;52.294;7.760;2024-02-26T14:06:29;14.43;;;8.80;;
30020;SDS011;16861;52.294;7.760;2024-02-26T14:08:57;14.07;;;8.82;;
30020;SDS011;16861;52.294;7.760;2024-02-26T14:11:25;13.43;;;8.43;;
30020;SDS011;16861;52.294;7.760;2024-02-26T14:13:51;13.73;;;9.30;;
30020;SDS011;16861;52.294;7.760;2024-02-26T14:16:18;15.35;;;8.60;;
30020;SDS011;16861;52.294;7.760;2024-02-26T14:18:46;14.00;;;9.18;;
30020;SDS011;16861;52.294;7.760;2024-02-26T14:21:13;13.00;;;8.88;;
30020;SDS011;16861;52.294;7.760;2024-02-26T14:23:40;13.23;;;9.15;;
30020;SDS011;16861;52.294;7.760;2024-02-26T14:26:06;12.70;;;8.80;;
30020;SDS011;16861;52.294;7.760;2024-02-26T14:28:33;13.80;;;9.23;;
30020;SDS011;16861;52.294;7.760;2024-02-26T14:31:02;12.23;;;9.13;;
30020;SDS011;16861;52.294;7.760;2024-02-26T14:33:30;13.73;;;9.13;;
30020;SDS011;16861;52.294;7.760;2024-02-26T14:35:57;14.65;;;9.25;;
30020;SDS011;16861;52.294;7.760;2024-02-26T14:38:24;12.60;;;8.25;;
30020;SDS011;16861;52.294;7.760;2024-02-26T14:40:51;11.88;;;8.30;;
30020;SDS011;16861;52.294;7.760;2024-02-26T14:43:18;11.00;;;8.25;;
30020;SDS011;16861;52.294;7.760;2024-02-26T14:45:45;13.07;;;8.68;;
30020;SDS011;16861;52.294;7.760;2024-02-26T14:48:11;13.10;;;8.57;;
30020;SDS011;16861;52.294;7.760;2024-02-26T14:50:42;13.45;;;9.40;;
30020;SDS011;16861;52.294;7.760;2024-02-26T14:53:08;12.27;;;8.68;;
30020;SDS011;16861;52.294;7.760;2024-02-26T14:55:35;12.15;;;8.02;;
30020;SDS011;16861;52.294;7.760;2024-02-26T14:58:04;12.07;;;8.57;;
30020;SDS011;16861;52.294;7.760;2024-02-26T15:00:30;13.60;;;9.02;;
30020;SDS011;16861;52.294;7.760;2024-02-26T15:03:00;10.75;;;8.38;;